Have a Safe July 4th! 

Flight Track Log - Related Links

Times and Time Zones

All times are in EDT time to prevent confusion due to time zone crossing. See the CJT574 flight status page for this flight to view local times or setup timezone preferences in your user account.

Time Position Orientation Groundspeed Altitude Reporting Facility
EDT Latitude Longitude Course Direction KTS MPH feet Rate Location/Type
Mon 11:44:30 PM 53.2833 -113.6000 149° Southeast 20 23 2,400  Level Edmonton Center
Mon 11:45:30 PM 53.2500 -113.5667 149° Southeast 160 184 3,200 1,150 Climbing Edmonton Center
Mon 11:46:30 PM 53.2167 -113.5167 138° Southeast 180 207 4,700 1,450 Climbing Edmonton Center
Mon 11:47:30 PM 53.2000 -113.4167 106° East 190 219 6,100 1,000 Climbing Edmonton Center
Mon 11:48:30 PM 53.2000 -113.3333 90° East 230 265 6,700 1,400 Climbing Edmonton Center
Mon 11:49:30 PM 53.2000 -113.2000 90° East 270 311 8,900 2,050 Climbing Edmonton Center
Mon 11:50:30 PM 53.2167 -113.0833 77° East 290 334 10,800 1,750 Climbing Edmonton Center
Mon 11:51:30 PM 53.2167 -112.9500 90° East 330 380 12,400 1,850 Climbing Edmonton Center
Mon 11:52:30 PM 53.2167 -112.7667 90° East 340 391 14,500 1,500 Climbing Edmonton Center
Mon 11:53:30 PM 53.2333 -112.6000 80° East 360 414 15,400 1,300 Climbing Edmonton Center
Mon 11:54:30 PM 53.2500 -112.4000 82° East 390 449 17,100 1,700 Climbing Edmonton Center
Mon 11:55:30 PM 53.2333 -112.2333 99° East 390 449 18,800 1,500 Climbing Edmonton Center
Mon 11:56:30 PM 53.1833 -112.0500 114° Southeast 410 472 20,100 1,550 Climbing Edmonton Center
Mon 11:57:30 PM 53.1667 -111.8500 98° East 430 495 21,900 1,600 Climbing Edmonton Center
Mon 11:58:30 PM 53.1167 -111.6500 113° Southeast 430 495 23,300 1,450 Climbing Edmonton Center
Mon 11:59:30 PM 53.0833 -111.4667 107° East 440 506 24,800 1,050 Climbing Edmonton Center
Tue 12:00:30 AM 53.0333 -111.2667 113° Southeast 450 518 25,400 1,050 Climbing Edmonton Center
Tue 12:01:30 AM 53.0000 -111.0333 103° East 470 541 26,900 1,300 Climbing Edmonton Center
Tue 12:02:30 AM 52.9667 -110.8667 108° East 470 541 28,000 1,050 Climbing Edmonton Center
Tue 12:03:30 AM 52.9167 -110.6333 109° East 480 552 29,000 900 Climbing Edmonton Center
Tue 12:04:30 AM 52.8833 -110.4333 105° East 480 552 29,800 900 Climbing Edmonton Center
Tue 12:05:30 AM 52.8333 -110.1667 107° East 490 564 30,800 800 Climbing Edmonton Center
Tue 12:06:30 AM 52.8000 -109.9667 105° East 490 564 31,400 650 Climbing Edmonton Center
Tue 12:07:30 AM 52.7667 -109.7500 104° East 500 575 32,100 750 Climbing Edmonton Center
Tue 12:08:30 AM 52.7167 -109.5167 109° East 510 587 32,900 850 Climbing Edmonton Center
Tue 12:09:30 AM 52.6667 -109.3167 112° Southeast 510 587 33,800 850 Climbing Edmonton Center
Tue 12:10:30 AM 52.6333 -109.0667 102° East 510 587 34,600 600 Climbing Edmonton Center
Tue 12:11:30 AM 52.5833 -108.8667 112° Southeast 510 587 35,000 200 Climbing Edmonton Center
Tue 12:12:30 AM 52.5500 -108.6000 102° East 510 587 35,000  Level Edmonton Center
Tue 12:13:30 AM 52.5000 -108.4000 112° Southeast 510 587 35,000  Level Edmonton Center
Tue 12:14:30 AM 52.4500 -108.1833 111° Southeast 510 587 35,000  Level Edmonton Center
Tue 12:15:30 AM 52.4167 -107.9500 103° East 510 587 35,000  Level Edmonton Center
Tue 12:16:30 AM 52.3667 -107.7333 111° Southeast 510 587 35,000  Level Edmonton Center
Tue 12:17:30 AM 52.3167 -107.5000 109° East 510 587 35,000  Level Edmonton Center
Tue 12:18:30 AM 52.2833 -107.2833 104° East 510 587 35,000  Level Edmonton Center
Tue 12:19:30 AM 52.2333 -107.0667 111° Southeast 510 587 35,000  Level Edmonton Center
Tue 12:20:30 AM 52.1833 -106.8667 112° Southeast 500 575 35,000  Level Edmonton Center
Tue 12:21:30 AM 52.1333 -106.6167 108° East 510 587 35,000  Level Edmonton Center
Tue 12:22:30 AM 52.0833 -106.4167 112° Southeast 510 587 35,000  Level Edmonton Center
Tue 12:23:30 AM 52.0500 -106.2000 104° East 500 575 35,000  Level Edmonton Center
Tue 12:24:30 AM 52.0167 -105.9833 104° East 500 575 35,000  Level Edmonton Center
Tue 12:25:30 AM 51.9667 -105.7667 110° East 510 587 35,000  Level Edmonton Center
Tue 12:26:30 AM 51.9167 -105.5333 109° East 510 587 35,000  Level Edmonton Center
Tue 12:27:30 AM 51.8833 -105.3000 103° East 510 587 35,000  Level Edmonton Center
Tue 12:28:30 AM 51.8333 -105.1000 112° Southeast 510 587 35,000 -400 Level Edmonton Center
Tue 12:29:30 AM 51.7833 -104.8833 110° East 490 564 34,200 -950 Descending Edmonton Center
Tue 12:30:30 AM 51.7500 -104.7000 106° East 460 529 33,100 -1,100 Descending Edmonton Center
Tue 12:31:30 AM 51.6833 -104.5000 118° Southeast 470 541 32,000 -850 Descending Edmonton Center
Tue 12:32:30 AM 51.6500 -104.2500 102° East 490 564 31,400 -500 Descending Edmonton Center
Tue 12:33:30 AM 51.6000 -104.0667 114° Southeast 500 575 31,000 -200 Descending Edmonton Center
Tue 12:34:30 AM 51.5500 -103.8167 108° East 510 587 31,000  Level Edmonton Center
Tue 12:35:30 AM 51.5167 -103.6333 106° East 510 587 31,000  Level Edmonton Center
Tue 12:36:30 AM 51.4667 -103.4167 110° East 520 598 31,000  Level Edmonton Center
Tue 12:37:30 AM 51.4000 -103.1833 115° Southeast 530 610 31,000  Level Edmonton Center
Tue 12:38:30 AM 51.3500 -102.9667 110° East 530 610 31,000  Level Edmonton Center
Tue 12:39:30 AM 51.3000 -102.7167 108° East 530 610 31,000  Level Edmonton Center
Tue 12:40:30 AM 51.2500 -102.5167 112° Southeast 530 610 31,000  Level Edmonton Center
Tue 12:41:30 AM 51.2000 -102.3000 110° East 520 598 31,000  Level Edmonton Center
Tue 12:42:30 AM 51.1500 -102.0667 109° East 530 610 31,000  Level Edmonton Center
Tue 12:43:30 AM 51.1000 -101.8500 110° East 530 610 31,000  Level Edmonton Center
Tue 12:44:30 AM 51.0667 -101.6167 103° East 530 610 31,000  Level Edmonton Center
Tue 12:45:30 AM 51.0167 -101.4000 110° East 530 610 31,000  Level Edmonton Center
Tue 12:46:30 AM 50.9667 -101.1667 109° East 530 610 31,000  Level Edmonton Center
Tue 12:47:32 AM 50.9333 -100.9500 104° East 530 610 31,000  Level Winnipeg Center
Tue 12:48:32 AM 50.8667 -100.7667 120° Southeast 530 610 31,000  Level Winnipeg Center
Tue 12:49:32 AM 50.8333 -100.5167 102° East 520 598 31,000  Level Winnipeg Center
Tue 12:50:32 AM 50.7833 -100.3000 110° East 520 598 31,000  Level Winnipeg Center
Tue 12:51:32 AM 50.7333 -100.1167 113° Southeast 520 598 31,000  Level Winnipeg Center
Tue 12:52:32 AM 50.6833 -99.8667 107° East 520 598 31,000  Level Winnipeg Center
Tue 12:53:32 AM 50.6333 -99.6500 110° East 530 610 31,000  Level Winnipeg Center
Tue 12:54:32 AM 50.5667 -99.4500 118° Southeast 530 610 31,000  Level Winnipeg Center
Tue 12:55:32 AM 50.5333 -99.2333 104° East 530 610 31,000 -250 Level Winnipeg Center
Tue 12:56:32 AM 50.4833 -99.0167 110° East 520 598 30,500 -1,050 Descending Winnipeg Center
Tue 12:57:32 AM 50.4333 -98.8000 110° East 490 564 28,900 -2,033 Descending Winnipeg Center
Tue 12:58:33 AM 50.3833 -98.6167 113° Southeast 470 541 26,400 -2,650 Descending Winnipeg Center
Tue 12:59:32 AM 50.3500 -98.4333 106° East 460 529 23,600 -2,874 Descending Winnipeg Center
Tue 01:00:32 AM 50.3167 -98.2500 106° East 450 518 20,700 -3,050 Descending Winnipeg Center
Tue 01:01:32 AM 50.2833 -98.0667 106° East 440 506 17,500 -3,100 Descending Winnipeg Center
Tue 01:02:32 AM 50.2167 -97.9000 122° Southeast 410 472 14,500 -2,950 Descending Winnipeg Center
Tue 01:03:32 AM 50.1333 -97.8000 142° Southeast 400 460 11,600 -1,983 Descending Winnipeg Center
Tue 01:04:33 AM 50.0667 -97.7000 136° Southeast 360 414 10,500 -1,000 Descending Winnipeg Center
Tue 01:05:32 AM 50.0000 -97.6167 141° Southeast 310 357 9,600 -1,160 Descending Winnipeg Center
Tue 01:06:32 AM 49.9333 -97.5167 136° Southeast 280 322 8,200 -1,750 Descending Winnipeg Center
Tue 01:07:32 AM 49.8833 -97.4333 133° Southeast 260 299 6,100 -2,050 Descending Winnipeg Center
Tue 01:08:32 AM 49.8167 -97.4000 162° South 260 299 4,100 -1,289 Descending Winnipeg Center
Tue 01:09:33 AM 49.7500 -97.4000 180° South 240 276 3,500 -150 Descending Winnipeg Center
Tue 01:10:32 AM 49.7000 -97.3333 139° Southeast 240 276 3,800 50 Climbing Winnipeg Center
Tue 01:11:32 AM 49.7333 -97.2500 58° Northeast 200 230 3,600 -600 Descending Winnipeg Center
Tue 01:12:32 AM 49.7833 -97.2500 360° North 170 196 2,600 -900 Descending Winnipeg Center
Tue 01:13:32 AM 49.8333 -97.2500 360° North 130 150 1,800 -744 Descending Winnipeg Center
Tue 01:14:33 AM 49.8667 -97.2333 18° North 130 150 1,100 -500 Descending Winnipeg Center
Tue 01:15:32 AM 49.9000 -97.2333 360° North 50 58 800 -305 Descending Winnipeg Center

Login

Don't have an account? Register now (free) for customized features, flight alerts, and more!